sensor_id;sensor_type;location;lat;lon;timestamp;temperature;humidity
13268;DHT22;6702;47.068;15.458;2023-05-18T00:00:49;12.60;89.40
13268;DHT22;6702;47.068;15.458;2023-05-18T00:03:55;12.60;89.50
13268;DHT22;6702;47.068;15.458;2023-05-18T00:06:58;12.70;88.60
13268;DHT22;6702;47.068;15.458;2023-05-18T00:10:04;12.60;89.00
13268;DHT22;6702;47.068;15.458;2023-05-18T00:13:08;12.60;88.70
13268;DHT22;6702;47.068;15.458;2023-05-18T00:16:12;12.60;88.60
13268;DHT22;6702;47.068;15.458;2023-05-18T00:19:16;12.60;88.60
13268;DHT22;6702;47.068;15.458;2023-05-18T00:22:21;12.50;88.90
13268;DHT22;6702;47.068;15.458;2023-05-18T00:25:24;12.50;88.90
13268;DHT22;6702;47.068;15.458;2023-05-18T00:28:28;12.50;88.50
13268;DHT22;6702;47.068;15.458;2023-05-18T00:31:33;12.50;88.50
13268;DHT22;6702;47.068;15.458;2023-05-18T00:34:37;12.40;88.90
13268;DHT22;6702;47.068;15.458;2023-05-18T00:37:40;12.40;89.00
13268;DHT22;6702;47.068;15.458;2023-05-18T00:40:43;12.40;89.10
13268;DHT22;6702;47.068;15.458;2023-05-18T00:43:46;12.50;89.20
13268;DHT22;6702;47.068;15.458;2023-05-18T00:46:51;12.40;89.60
13268;DHT22;6702;47.068;15.458;2023-05-18T00:49:54;12.40;89.50
13268;DHT22;6702;47.068;15.458;2023-05-18T00:52:58;12.50;89.70
13268;DHT22;6702;47.068;15.458;2023-05-18T00:56:01;12.40;89.50
13268;DHT22;6702;47.068;15.458;2023-05-18T00:59:04;12.50;89.60
13268;DHT22;6702;47.068;15.458;2023-05-18T01:02:09;12.50;89.50
13268;DHT22;6702;47.068;15.458;2023-05-18T01:05:13;12.50;89.60
13268;DHT22;6702;47.068;15.458;2023-05-18T01:08:18;12.50;89.20
13268;DHT22;6702;47.068;15.458;2023-05-18T01:11:30;12.50;89.60
13268;DHT22;6702;47.068;15.458;2023-05-18T01:14:38;12.50;89.60
13268;DHT22;6702;47.068;15.458;2023-05-18T01:18:00;12.50;89.70
13268;DHT22;6702;47.068;15.458;2023-05-18T01:21:12;12.50;89.60
13268;DHT22;6702;47.068;15.458;2023-05-18T01:24:27;12.50;89.60
13268;DHT22;6702;47.068;15.458;2023-05-18T01:27:36;12.50;89.80
13268;DHT22;6702;47.068;15.458;2023-05-18T01:30:44;12.50;90.00
13268;DHT22;6702;47.068;15.458;2023-05-18T01:33:47;12.50;90.00
13268;DHT22;6702;47.068;15.458;2023-05-18T01:36:50;12.50;90.00
13268;DHT22;6702;47.068;15.458;2023-05-18T01:39:53;12.50;89.80
13268;DHT22;6702;47.068;15.458;2023-05-18T01:43:02;12.50;89.60
13268;DHT22;6702;47.068;15.458;2023-05-18T01:46:12;12.50;89.90
13268;DHT22;6702;47.068;15.458;2023-05-18T01:49:25;12.50;90.00
13268;DHT22;6702;47.068;15.458;2023-05-18T01:52:32;12.50;89.80
13268;DHT22;6702;47.068;15.458;2023-05-18T01:55:38;12.50;90.30
13268;DHT22;6702;47.068;15.458;2023-05-18T01:58:43;12.40;90.00
13268;DHT22;6702;47.068;15.458;2023-05-18T02:01:46;12.40;90.10
13268;DHT22;6702;47.068;15.458;2023-05-18T02:04:50;12.40;90.30
13268;DHT22;6702;47.068;15.458;2023-05-18T02:07:53;12.40;90.30
13268;DHT22;6702;47.068;15.458;2023-05-18T02:10:56;12.40;90.40
13268;DHT22;6702;47.068;15.458;2023-05-18T02:14:01;12.40;90.30
13268;DHT22;6702;47.068;15.458;2023-05-18T02:17:04;12.40;90.40
13268;DHT22;6702;47.068;15.458;2023-05-18T02:20:09;12.40;90.80
13268;DHT22;6702;47.068;15.458;2023-05-18T02:23:12;12.40;90.50
13268;DHT22;6702;47.068;15.458;2023-05-18T02:26:15;12.40;90.40
13268;DHT22;6702;47.068;15.458;2023-05-18T02:29:19;12.40;90.60
13268;DHT22;6702;47.068;15.458;2023-05-18T02:32:23;12.40;90.80
13268;DHT22;6702;47.068;15.458;2023-05-18T02:35:26;12.40;90.70
13268;DHT22;6702;47.068;15.458;2023-05-18T02:38:29;12.40;90.60
13268;DHT22;6702;47.068;15.458;2023-05-18T02:41:33;12.30;90.70
13268;DHT22;6702;47.068;15.458;2023-05-18T02:44:37;12.30;91.20
13268;DHT22;6702;47.068;15.458;2023-05-18T02:47:40;12.30;91.00
13268;DHT22;6702;47.068;15.458;2023-05-18T02:50:47;12.30;90.90
13268;DHT22;6702;47.068;15.458;2023-05-18T02:53:50;12.20;91.00
13268;DHT22;6702;47.068;15.458;2023-05-18T02:56:54;12.20;91.00
13268;DHT22;6702;47.068;15.458;2023-05-18T03:00:01;12.20;91.00
13268;DHT22;6702;47.068;15.458;2023-05-18T03:03:10;12.10;91.30
13268;DHT22;6702;47.068;15.458;2023-05-18T03:06:17;12.20;91.50
13268;DHT22;6702;47.068;15.458;2023-05-18T03:09:23;12.20;91.40
13268;DHT22;6702;47.068;15.458;2023-05-18T03:12:26;12.20;91.60
13268;DHT22;6702;47.068;15.458;2023-05-18T03:15:31;12.10;91.60
13268;DHT22;6702;47.068;15.458;2023-05-18T03:18:34;12.10;91.50
13268;DHT22;6702;47.068;15.458;2023-05-18T03:21:37;12.10;91.60
13268;DHT22;6702;47.068;15.458;2023-05-18T03:24:40;12.10;91.90
13268;DHT22;6702;47.068;15.458;2023-05-18T03:27:44;12.10;92.00
13268;DHT22;6702;47.068;15.458;2023-05-18T03:30:48;12.10;92.00
13268;DHT22;6702;47.068;15.458;2023-05-18T03:33:52;12.10;92.10
13268;DHT22;6702;47.068;15.458;2023-05-18T03:36:55;12.10;92.10
13268;DHT22;6702;47.068;15.458;2023-05-18T03:40:07;12.10;92.10
13268;DHT22;6702;47.068;15.458;2023-05-18T03:43:11;12.20;92.30
13268;DHT22;6702;47.068;15.458;2023-05-18T03:46:15;12.20;92.30
13268;DHT22;6702;47.068;15.458;2023-05-18T03:49:18;12.20;92.40
13268;DHT22;6702;47.068;15.458;2023-05-18T03:52:22;12.20;92.40
13268;DHT22;6702;47.068;15.458;2023-05-18T03:55:25;12.20;92.40
13268;DHT22;6702;47.068;15.458;2023-05-18T03:58:28;12.20;92.40
13268;DHT22;6702;47.068;15.458;2023-05-18T04:01:33;12.30;92.40
13268;DHT22;6702;47.068;15.458;2023-05-18T04:04:36;12.20;92.40
13268;DHT22;6702;47.068;15.458;2023-05-18T04:07:42;12.20;92.40
13268;DHT22;6702;47.068;15.458;2023-05-18T04:10:47;12.20;92.40
13268;DHT22;6702;47.068;15.458;2023-05-18T04:13:50;12.20;92.50
13268;DHT22;6702;47.068;15.458;2023-05-18T04:16:55;12.30;92.60
13268;DHT22;6702;47.068;15.458;2023-05-18T04:19:59;12.30;92.40
13268;DHT22;6702;47.068;15.458;2023-05-18T04:23:04;12.30;92.20
13268;DHT22;6702;47.068;15.458;2023-05-18T04:26:10;12.30;92.20
13268;DHT22;6702;47.068;15.458;2023-05-18T04:29:13;12.30;92.40
13268;DHT22;6702;47.068;15.458;2023-05-18T04:32:19;12.30;92.50
13268;DHT22;6702;47.068;15.458;2023-05-18T04:35:23;12.40;92.50
13268;DHT22;6702;47.068;15.458;2023-05-18T04:38:26;12.40;92.40
13268;DHT22;6702;47.068;15.458;2023-05-18T04:41:30;12.50;92.20
13268;DHT22;6702;47.068;15.458;2023-05-18T04:44:34;12.60;92.30
13268;DHT22;6702;47.068;15.458;2023-05-18T04:47:41;12.70;92.80
13268;DHT22;6702;47.068;15.458;2023-05-18T04:50:47;12.80;93.10
13268;DHT22;6702;47.068;15.458;2023-05-18T04:53:50;12.90;92.90
13268;DHT22;6702;47.068;15.458;2023-05-18T04:56:54;13.00;92.80
13268;DHT22;6702;47.068;15.458;2023-05-18T04:59:57;13.10;93.00
13268;DHT22;6702;47.068;15.458;2023-05-18T05:03:02;13.20;93.10
13268;DHT22;6702;47.068;15.458;2023-05-18T05:06:05;13.40;92.80
13268;DHT22;6702;47.068;15.458;2023-05-18T05:09:09;13.50;92.90
13268;DHT22;6702;47.068;15.458;2023-05-18T05:12:16;13.50;92.80
13268;DHT22;6702;47.068;15.458;2023-05-18T05:15:19;13.70;92.90
13268;DHT22;6702;47.068;15.458;2023-05-18T05:18:24;13.80;92.40
13268;DHT22;6702;47.068;15.458;2023-05-18T05:21:27;14.00;92.50
13268;DHT22;6702;47.068;15.458;2023-05-18T05:24:30;14.10;92.60
13268;DHT22;6702;47.068;15.458;2023-05-18T05:27:33;14.20;92.60
13268;DHT22;6702;47.068;15.458;2023-05-18T05:30:37;14.30;92.70
13268;DHT22;6702;47.068;15.458;2023-05-18T05:33:42;14.40;92.30
13268;DHT22;6702;47.068;15.458;2023-05-18T05:36:46;14.50;92.10
13268;DHT22;6702;47.068;15.458;2023-05-18T05:39:49;14.70;92.10
13268;DHT22;6702;47.068;15.458;2023-05-18T05:42:53;14.90;91.70
13268;DHT22;6702;47.068;15.458;2023-05-18T05:45:56;15.00;91.40
13268;DHT22;6702;47.068;15.458;2023-05-18T05:49:01;15.10;91.30
13268;DHT22;6702;47.068;15.458;2023-05-18T05:52:05;15.20;91.00
13268;DHT22;6702;47.068;15.458;2023-05-18T05:55:08;15.30;90.90
13268;DHT22;6702;47.068;15.458;2023-05-18T05:58:11;15.50;91.10
13268;DHT22;6702;47.068;15.458;2023-05-18T06:01:15;15.70;90.50
13268;DHT22;6702;47.068;15.458;2023-05-18T06:04:19;16.30;90.20
13268;DHT22;6702;47.068;15.458;2023-05-18T06:07:23;16.90;87.60
13268;DHT22;6702;47.068;15.458;2023-05-18T06:10:26;17.50;85.40
13268;DHT22;6702;47.068;15.458;2023-05-18T06:13:29;18.00;83.80
13268;DHT22;6702;47.068;15.458;2023-05-18T06:16:32;18.70;81.40
13268;DHT22;6702;47.068;15.458;2023-05-18T06:19:37;19.40;79.40
13268;DHT22;6702;47.068;15.458;2023-05-18T06:22:40;20.10;76.10
13268;DHT22;6702;47.068;15.458;2023-05-18T06:25:44;20.40;73.40
13268;DHT22;6702;47.068;15.458;2023-05-18T06:28:48;19.90;72.40
13268;DHT22;6702;47.068;15.458;2023-05-18T06:31:51;19.60;73.20
13268;DHT22;6702;47.068;15.458;2023-05-18T06:34:56;19.40;72.70
13268;DHT22;6702;47.068;15.458;2023-05-18T06:37:59;19.20;72.70
13268;DHT22;6702;47.068;15.458;2023-05-18T06:41:02;19.00;73.00
13268;DHT22;6702;47.068;15.458;2023-05-18T06:44:05;18.80;73.20
13268;DHT22;6702;47.068;15.458;2023-05-18T06:47:08;18.60;72.90
13268;DHT22;6702;47.068;15.458;2023-05-18T06:50:13;18.50;73.80
13268;DHT22;6702;47.068;15.458;2023-05-18T06:53:16;18.50;74.00
13268;DHT22;6702;47.068;15.458;2023-05-18T06:56:19;18.50;72.90
13268;DHT22;6702;47.068;15.458;2023-05-18T06:59:23;18.50;73.70
13268;DHT22;6702;47.068;15.458;2023-05-18T07:02:26;18.70;73.70
13268;DHT22;6702;47.068;15.458;2023-05-18T07:05:31;18.60;73.20
13268;DHT22;6702;47.068;15.458;2023-05-18T07:08:37;18.60;73.70
13268;DHT22;6702;47.068;15.458;2023-05-18T07:11:41;18.60;72.10
13268;DHT22;6702;47.068;15.458;2023-05-18T07:14:46;18.50;71.00
13268;DHT22;6702;47.068;15.458;2023-05-18T07:17:49;18.20;71.50
13268;DHT22;6702;47.068;15.458;2023-05-18T07:20:54;18.30;72.20
13268;DHT22;6702;47.068;15.458;2023-05-18T07:23:57;18.40;72.40
13268;DHT22;6702;47.068;15.458;2023-05-18T07:27:00;18.70;71.70
13268;DHT22;6702;47.068;15.458;2023-05-18T07:30:04;18.90;71.70
13268;DHT22;6702;47.068;15.458;2023-05-18T07:33:08;19.00;71.20
13268;DHT22;6702;47.068;15.458;2023-05-18T07:36:13;19.20;71.30
13268;DHT22;6702;47.068;15.458;2023-05-18T07:39:16;19.40;70.70
13268;DHT22;6702;47.068;15.458;2023-05-18T07:42:20;19.50;70.00
13268;DHT22;6702;47.068;15.458;2023-05-18T07:45:23;19.80;69.50
13268;DHT22;6702;47.068;15.458;2023-05-18T07:48:27;20.20;68.30
13268;DHT22;6702;47.068;15.458;2023-05-18T07:51:32;20.70;66.10
13268;DHT22;6702;47.068;15.458;2023-05-18T07:54:35;21.20;64.90
13268;DHT22;6702;47.068;15.458;2023-05-18T07:57:38;21.60;64.40
13268;DHT22;6702;47.068;15.458;2023-05-18T08:00:42;21.70;61.70
13268;DHT22;6702;47.068;15.458;2023-05-18T08:03:46;21.70;65.20
13268;DHT22;6702;47.068;15.458;2023-05-18T08:06:50;21.40;63.80
13268;DHT22;6702;47.068;15.458;2023-05-18T08:09:57;21.20;62.30
13268;DHT22;6702;47.068;15.458;2023-05-18T08:13:00;21.10;62.80
13268;DHT22;6702;47.068;15.458;2023-05-18T08:16:03;21.00;63.60
13268;DHT22;6702;47.068;15.458;2023-05-18T08:19:13;20.90;63.70
13268;DHT22;6702;47.068;15.458;2023-05-18T08:22:18;20.90;63.70
13268;DHT22;6702;47.068;15.458;2023-05-18T08:25:21;21.00;64.40
13268;DHT22;6702;47.068;15.458;2023-05-18T08:28:24;21.10;63.50
13268;DHT22;6702;47.068;15.458;2023-05-18T08:31:28;21.10;60.90
13268;DHT22;6702;47.068;15.458;2023-05-18T08:34:31;21.00;61.50
13268;DHT22;6702;47.068;15.458;2023-05-18T08:37:36;20.90;60.20
13268;DHT22;6702;47.068;15.458;2023-05-18T08:40:45;20.70;61.60
13268;DHT22;6702;47.068;15.458;2023-05-18T08:43:54;20.70;60.90
13268;DHT22;6702;47.068;15.458;2023-05-18T08:47:02;20.80;60.80
13268;DHT22;6702;47.068;15.458;2023-05-18T08:50:07;20.70;60.80
13268;DHT22;6702;47.068;15.458;2023-05-18T08:53:16;20.30;61.50
13268;DHT22;6702;47.068;15.458;2023-05-18T08:56:22;19.90;62.30
13268;DHT22;6702;47.068;15.458;2023-05-18T08:59:26;19.90;62.80
13268;DHT22;6702;47.068;15.458;2023-05-18T09:02:32;19.60;63.40
13268;DHT22;6702;47.068;15.458;2023-05-18T09:05:37;19.90;64.10
13268;DHT22;6702;47.068;15.458;2023-05-18T09:08:42;20.30;62.60
13268;DHT22;6702;47.068;15.458;2023-05-18T09:11:48;20.50;61.90
13268;DHT22;6702;47.068;15.458;2023-05-18T09:14:52;20.80;62.90
13268;DHT22;6702;47.068;15.458;2023-05-18T09:17:56;21.10;60.10
13268;DHT22;6702;47.068;15.458;2023-05-18T09:20:59;21.40;59.70
13268;DHT22;6702;47.068;15.458;2023-05-18T09:24:04;21.70;59.20
13268;DHT22;6702;47.068;15.458;2023-05-18T09:27:07;22.00;59.60
13268;DHT22;6702;47.068;15.458;2023-05-18T09:30:12;22.30;58.50
13268;DHT22;6702;47.068;15.458;2023-05-18T09:33:16;22.60;62.00
13268;DHT22;6702;47.068;15.458;2023-05-18T09:36:23;22.80;60.30
13268;DHT22;6702;47.068;15.458;2023-05-18T09:39:30;23.00;55.80
13268;DHT22;6702;47.068;15.458;2023-05-18T09:42:37;23.00;54.80
13268;DHT22;6702;47.068;15.458;2023-05-18T09:45:42;23.00;54.50
13268;DHT22;6702;47.068;15.458;2023-05-18T09:48:48;22.70;54.90
13268;DHT22;6702;47.068;15.458;2023-05-18T09:51:52;23.30;54.90
13268;DHT22;6702;47.068;15.458;2023-05-18T09:54:59;23.80;54.10
13268;DHT22;6702;47.068;15.458;2023-05-18T09:58:04;24.10;53.70
13268;DHT22;6702;47.068;15.458;2023-05-18T10:01:08;24.30;52.00
13268;DHT22;6702;47.068;15.458;2023-05-18T10:04:12;24.50;51.40
13268;DHT22;6702;47.068;15.458;2023-05-18T10:07:15;24.80;51.20
13268;DHT22;6702;47.068;15.458;2023-05-18T10:10:22;25.20;50.10
13268;DHT22;6702;47.068;15.458;2023-05-18T10:13:27;25.30;49.20
13268;DHT22;6702;47.068;15.458;2023-05-18T10:16:32;25.50;49.10
13268;DHT22;6702;47.068;15.458;2023-05-18T10:19:37;25.70;48.30
13268;DHT22;6702;47.068;15.458;2023-05-18T10:22:44;25.20;48.70
13268;DHT22;6702;47.068;15.458;2023-05-18T10:25:50;25.10;48.00
13268;DHT22;6702;47.068;15.458;2023-05-18T10:28:54;25.30;47.90
13268;DHT22;6702;47.068;15.458;2023-05-18T10:31:59;24.80;48.20
13268;DHT22;6702;47.068;15.458;2023-05-18T10:35:09;24.60;48.50
13268;DHT22;6702;47.068;15.458;2023-05-18T10:38:12;24.60;48.70
13268;DHT22;6702;47.068;15.458;2023-05-18T10:41:20;24.20;48.40
13268;DHT22;6702;47.068;15.458;2023-05-18T10:44:24;24.40;48.40
13268;DHT22;6702;47.068;15.458;2023-05-18T10:47:27;24.20;48.70
13268;DHT22;6702;47.068;15.458;2023-05-18T10:50:32;24.10;48.90
13268;DHT22;6702;47.068;15.458;2023-05-18T10:53:35;24.10;49.40
13268;DHT22;6702;47.068;15.458;2023-05-18T10:56:43;23.70;49.80
13268;DHT22;6702;47.068;15.458;2023-05-18T10:59:48;23.70;49.70
13268;DHT22;6702;47.068;15.458;2023-05-18T11:02:52;23.80;49.60
13268;DHT22;6702;47.068;15.458;2023-05-18T11:06:03;24.00;50.10
13268;DHT22;6702;47.068;15.458;2023-05-18T11:09:21;23.60;49.80
13268;DHT22;6702;47.068;15.458;2023-05-18T11:12:26;23.70;50.30
13268;DHT22;6702;47.068;15.458;2023-05-18T11:16:03;23.80;50.20
13268;DHT22;6702;47.068;15.458;2023-05-18T11:19:08;23.70;49.60
13268;DHT22;6702;47.068;15.458;2023-05-18T11:22:12;23.70;50.70
13268;DHT22;6702;47.068;15.458;2023-05-18T11:25:43;23.80;50.60
13268;DHT22;6702;47.068;15.458;2023-05-18T11:28:51;23.70;50.00
13268;DHT22;6702;47.068;15.458;2023-05-18T11:31:54;23.70;50.20
13268;DHT22;6702;47.068;15.458;2023-05-18T11:34:58;24.10;51.20
13268;DHT22;6702;47.068;15.458;2023-05-18T11:38:07;24.10;50.30
13268;DHT22;6702;47.068;15.458;2023-05-18T11:41:26;24.30;49.80
13268;DHT22;6702;47.068;15.458;2023-05-18T11:44:31;24.50;49.80
13268;DHT22;6702;47.068;15.458;2023-05-18T11:47:35;24.50;49.40
13268;DHT22;6702;47.068;15.458;2023-05-18T11:50:44;24.40;49.10
13268;DHT22;6702;47.068;15.458;2023-05-18T11:53:48;24.30;49.00
13268;DHT22;6702;47.068;15.458;2023-05-18T11:56:52;23.90;49.10
13268;DHT22;6702;47.068;15.458;2023-05-18T11:59:57;23.70;50.20
13268;DHT22;6702;47.068;15.458;2023-05-18T12:03:01;23.20;51.30
13268;DHT22;6702;47.068;15.458;2023-05-18T12:06:06;22.90;51.50
13268;DHT22;6702;47.068;15.458;2023-05-18T12:09:09;22.30;52.90
13268;DHT22;6702;47.068;15.458;2023-05-18T12:12:13;21.90;55.20
13268;DHT22;6702;47.068;15.458;2023-05-18T12:15:22;21.40;57.40
13268;DHT22;6702;47.068;15.458;2023-05-18T12:18:27;21.00;59.20
13268;DHT22;6702;47.068;15.458;2023-05-18T12:21:34;20.40;61.90
13268;DHT22;6702;47.068;15.458;2023-05-18T12:24:37;20.10;62.70
13268;DHT22;6702;47.068;15.458;2023-05-18T12:27:42;19.70;64.30
13268;DHT22;6702;47.068;15.458;2023-05-18T12:30:47;19.40;66.10
13268;DHT22;6702;47.068;15.458;2023-05-18T12:33:52;19.60;66.20
13268;DHT22;6702;47.068;15.458;2023-05-18T12:36:59;19.60;66.70
13268;DHT22;6702;47.068;15.458;2023-05-18T12:40:03;19.40;67.70
13268;DHT22;6702;47.068;15.458;2023-05-18T12:43:07;18.90;70.00
13268;DHT22;6702;47.068;15.458;2023-05-18T12:46:12;18.90;71.40
13268;DHT22;6702;47.068;15.458;2023-05-18T12:49:17;19.10;71.20
13268;DHT22;6702;47.068;15.458;2023-05-18T12:52:21;19.40;70.60
13268;DHT22;6702;47.068;15.458;2023-05-18T12:55:24;19.70;70.10
13268;DHT22;6702;47.068;15.458;2023-05-18T12:58:27;19.90;69.70
13268;DHT22;6702;47.068;15.458;2023-05-18T13:01:40;20.10;69.70
13268;DHT22;6702;47.068;15.458;2023-05-18T13:04:44;19.90;71.30
13268;DHT22;6702;47.068;15.458;2023-05-18T13:07:47;19.90;70.70
13268;DHT22;6702;47.068;15.458;2023-05-18T13:10:51;20.10;70.00
13268;DHT22;6702;47.068;15.458;2023-05-18T13:14:13;20.10;69.90
13268;DHT22;6702;47.068;15.458;2023-05-18T13:17:21;20.30;70.80
13268;DHT22;6702;47.068;15.458;2023-05-18T13:20:32;20.30;69.50
13268;DHT22;6702;47.068;15.458;2023-05-18T13:23:38;20.00;70.80
13268;DHT22;6702;47.068;15.458;2023-05-18T13:26:41;19.70;72.10
13268;DHT22;6702;47.068;15.458;2023-05-18T13:29:45;19.30;73.20
13268;DHT22;6702;47.068;15.458;2023-05-18T13:32:50;19.10;75.00
13268;DHT22;6702;47.068;15.458;2023-05-18T13:35:53;19.20;74.90
13268;DHT22;6702;47.068;15.458;2023-05-18T13:38:56;19.30;75.40
13268;DHT22;6702;47.068;15.458;2023-05-18T13:42:00;19.30;75.50
13268;DHT22;6702;47.068;15.458;2023-05-18T13:45:04;19.30;75.60
13268;DHT22;6702;47.068;15.458;2023-05-18T13:48:09;19.00;75.80
13268;DHT22;6702;47.068;15.458;2023-05-18T13:51:15;18.90;76.60
13268;DHT22;6702;47.068;15.458;2023-05-18T13:54:18;19.00;76.20
13268;DHT22;6702;47.068;15.458;2023-05-18T13:57:22;19.10;75.40
13268;DHT22;6702;47.068;15.458;2023-05-18T14:00:27;19.00;75.90
13268;DHT22;6702;47.068;15.458;2023-05-18T14:03:32;18.90;76.50
13268;DHT22;6702;47.068;15.458;2023-05-18T14:06:37;19.00;76.20
13268;DHT22;6702;47.068;15.458;2023-05-18T14:09:41;19.30;75.90
13268;DHT22;6702;47.068;15.458;2023-05-18T14:12:45;19.30;75.30
13268;DHT22;6702;47.068;15.458;2023-05-18T14:15:48;19.30;75.10
13268;DHT22;6702;47.068;15.458;2023-05-18T14:18:52;19.30;75.20
13268;DHT22;6702;47.068;15.458;2023-05-18T14:21:56;19.20;75.70
13268;DHT22;6702;47.068;15.458;2023-05-18T14:24:59;19.00;76.60
13268;DHT22;6702;47.068;15.458;2023-05-18T14:28:02;19.10;77.10
13268;DHT22;6702;47.068;15.458;2023-05-18T14:31:06;19.10;76.50
13268;DHT22;6702;47.068;15.458;2023-05-18T14:34:10;19.00;76.40
13268;DHT22;6702;47.068;15.458;2023-05-18T14:37:13;19.10;76.60
13268;DHT22;6702;47.068;15.458;2023-05-18T14:40:17;19.20;76.50
13268;DHT22;6702;47.068;15.458;2023-05-18T14:43:20;19.30;76.40
13268;DHT22;6702;47.068;15.458;2023-05-18T14:46:23;19.10;76.60
13268;DHT22;6702;47.068;15.458;2023-05-18T14:49:28;18.90;76.80
13268;DHT22;6702;47.068;15.458;2023-05-18T14:52:31;18.80;77.30
13268;DHT22;6702;47.068;15.458;2023-05-18T14:55:34;19.00;78.50
13268;DHT22;6702;47.068;15.458;2023-05-18T14:58:37;19.30;77.70
13268;DHT22;6702;47.068;15.458;2023-05-18T15:01:42;19.40;76.30
13268;DHT22;6702;47.068;15.458;2023-05-18T15:04:46;19.50;76.80
13268;DHT22;6702;47.068;15.458;2023-05-18T15:07:49;19.50;76.80
13268;DHT22;6702;47.068;15.458;2023-05-18T15:10:52;19.50;77.20
13268;DHT22;6702;47.068;15.458;2023-05-18T15:13:56;19.50;76.40
13268;DHT22;6702;47.068;15.458;2023-05-18T15:16:59;19.30;76.30
13268;DHT22;6702;47.068;15.458;2023-05-18T15:20:05;19.00;76.80
13268;DHT22;6702;47.068;15.458;2023-05-18T15:23:09;18.80;76.90
13268;DHT22;6702;47.068;15.458;2023-05-18T15:26:12;18.80;77.30
13268;DHT22;6702;47.068;15.458;2023-05-18T15:29:15;18.80;77.10
13268;DHT22;6702;47.068;15.458;2023-05-18T15:32:18;18.80;77.60
13268;DHT22;6702;47.068;15.458;2023-05-18T15:35:23;19.00;78.80
13268;DHT22;6702;47.068;15.458;2023-05-18T15:38:26;19.10;78.00
13268;DHT22;6702;47.068;15.458;2023-05-18T15:41:31;19.20;78.00
13268;DHT22;6702;47.068;15.458;2023-05-18T15:44:35;19.20;78.20
13268;DHT22;6702;47.068;15.458;2023-05-18T15:47:38;19.30;77.10
13268;DHT22;6702;47.068;15.458;2023-05-18T15:50:44;19.10;77.10
13268;DHT22;6702;47.068;15.458;2023-05-18T15:53:48;18.40;78.80
13268;DHT22;6702;47.068;15.458;2023-05-18T15:56:51;18.20;79.80
13268;DHT22;6702;47.068;15.458;2023-05-18T15:59:54;18.10;80.40
13268;DHT22;6702;47.068;15.458;2023-05-18T16:02:58;18.00;81.00
13268;DHT22;6702;47.068;15.458;2023-05-18T16:06:02;18.00;81.20
13268;DHT22;6702;47.068;15.458;2023-05-18T16:09:06;18.00;81.10
13268;DHT22;6702;47.068;15.458;2023-05-18T16:12:09;18.00;81.70
13268;DHT22;6702;47.068;15.458;2023-05-18T16:15:12;18.00;81.70
13268;DHT22;6702;47.068;15.458;2023-05-18T16:18:15;18.00;81.70
13268;DHT22;6702;47.068;15.458;2023-05-18T16:21:20;17.90;81.70
13268;DHT22;6702;47.068;15.458;2023-05-18T16:24:23;17.90;81.80
13268;DHT22;6702;47.068;15.458;2023-05-18T16:27:27;17.80;81.20
13268;DHT22;6702;47.068;15.458;2023-05-18T16:30:30;17.60;82.50
13268;DHT22;6702;47.068;15.458;2023-05-18T16:33:34;17.60;82.60
13268;DHT22;6702;47.068;15.458;2023-05-18T16:36:38;17.60;82.60
13268;DHT22;6702;47.068;15.458;2023-05-18T16:39:41;17.60;83.50
13268;DHT22;6702;47.068;15.458;2023-05-18T16:42:45;17.60;83.70
13268;DHT22;6702;47.068;15.458;2023-05-18T16:45:49;17.70;82.70
13268;DHT22;6702;47.068;15.458;2023-05-18T16:48:52;17.60;83.40
13268;DHT22;6702;47.068;15.458;2023-05-18T16:51:57;17.50;84.00
13268;DHT22;6702;47.068;15.458;2023-05-18T16:55:00;17.30;84.40
13268;DHT22;6702;47.068;15.458;2023-05-18T16:58:03;17.10;85.30
13268;DHT22;6702;47.068;15.458;2023-05-18T17:01:07;17.00;86.20
13268;DHT22;6702;47.068;15.458;2023-05-18T17:04:27;16.90;86.40
13268;DHT22;6702;47.068;15.458;2023-05-18T17:07:32;16.80;86.90
13268;DHT22;6702;47.068;15.458;2023-05-18T17:10:35;16.80;87.30
13268;DHT22;6702;47.068;15.458;2023-05-18T17:13:39;16.90;87.50
13268;DHT22;6702;47.068;15.458;2023-05-18T17:16:42;16.90;87.70
13268;DHT22;6702;47.068;15.458;2023-05-18T17:19:46;16.90;87.60
13268;DHT22;6702;47.068;15.458;2023-05-18T17:22:51;16.90;87.80
13268;DHT22;6702;47.068;15.458;2023-05-18T17:25:54;16.90;87.70
13268;DHT22;6702;47.068;15.458;2023-05-18T17:29:07;16.80;88.50
13268;DHT22;6702;47.068;15.458;2023-05-18T17:32:10;16.50;87.90
13268;DHT22;6702;47.068;15.458;2023-05-18T17:35:13;16.20;88.70
13268;DHT22;6702;47.068;15.458;2023-05-18T17:38:18;16.10;89.50
13268;DHT22;6702;47.068;15.458;2023-05-18T17:41:23;16.10;90.00
13268;DHT22;6702;47.068;15.458;2023-05-18T17:44:26;15.80;90.10
13268;DHT22;6702;47.068;15.458;2023-05-18T17:47:29;15.70;90.40
13268;DHT22;6702;47.068;15.458;2023-05-18T17:50:33;15.70;90.60
13268;DHT22;6702;47.068;15.458;2023-05-18T17:53:40;15.70;90.50
13268;DHT22;6702;47.068;15.458;2023-05-18T17:56:43;15.50;90.70
13268;DHT22;6702;47.068;15.458;2023-05-18T17:59:47;15.20;91.30
13268;DHT22;6702;47.068;15.458;2023-05-18T18:02:50;15.10;91.60
13268;DHT22;6702;47.068;15.458;2023-05-18T18:05:54;15.10;91.90
13268;DHT22;6702;47.068;15.458;2023-05-18T18:08:59;15.20;91.90
13268;DHT22;6702;47.068;15.458;2023-05-18T18:12:02;15.20;91.70
13268;DHT22;6702;47.068;15.458;2023-05-18T18:15:07;15.10;91.80
13268;DHT22;6702;47.068;15.458;2023-05-18T18:18:11;15.00;92.00
13268;DHT22;6702;47.068;15.458;2023-05-18T18:21:14;15.00;92.10
13268;DHT22;6702;47.068;15.458;2023-05-18T18:24:19;14.90;92.30
13268;DHT22;6702;47.068;15.458;2023-05-18T18:27:25;14.80;92.50
13268;DHT22;6702;47.068;15.458;2023-05-18T18:30:29;14.70;92.80
13268;DHT22;6702;47.068;15.458;2023-05-18T18:33:33;14.60;93.00
13268;DHT22;6702;47.068;15.458;2023-05-18T18:36:36;14.60;93.20
13268;DHT22;6702;47.068;15.458;2023-05-18T18:39:41;14.60;93.20
13268;DHT22;6702;47.068;15.458;2023-05-18T18:42:44;14.60;93.60
13268;DHT22;6702;47.068;15.458;2023-05-18T18:45:49;14.60;93.40
13268;DHT22;6702;47.068;15.458;2023-05-18T18:48:52;14.60;93.50
13268;DHT22;6702;47.068;15.458;2023-05-18T18:51:56;14.60;93.40
13268;DHT22;6702;47.068;15.458;2023-05-18T18:55:02;14.60;93.50
13268;DHT22;6702;47.068;15.458;2023-05-18T18:58:10;14.60;93.60
13268;DHT22;6702;47.068;15.458;2023-05-18T19:01:13;14.70;93.60
13268;DHT22;6702;47.068;15.458;2023-05-18T19:04:18;14.80;93.70
13268;DHT22;6702;47.068;15.458;2023-05-18T19:07:22;14.70;93.60
13268;DHT22;6702;47.068;15.458;2023-05-18T19:10:26;14.70;93.60
13268;DHT22;6702;47.068;15.458;2023-05-18T19:13:33;14.80;93.60
13268;DHT22;6702;47.068;15.458;2023-05-18T19:16:37;14.80;93.70
13268;DHT22;6702;47.068;15.458;2023-05-18T19:19:40;14.80;93.70
13268;DHT22;6702;47.068;15.458;2023-05-18T19:22:44;14.80;93.70
13268;DHT22;6702;47.068;15.458;2023-05-18T19:25:49;14.80;93.70